createdAt,value
2022-12-26T00:00:57.464Z,1.83
2022-12-26T00:02:00.431Z,2.10
2022-12-26T00:03:03.590Z,2.03
2022-12-26T00:04:05.932Z,1.70
2022-12-26T00:05:28.841Z,2.17
2022-12-26T00:06:32.219Z,2.00
2022-12-26T00:07:35.541Z,1.80
2022-12-26T00:08:37.598Z,2.00
2022-12-26T00:09:41.995Z,1.83
2022-12-26T00:10:44.136Z,2.13
2022-12-26T00:11:47.275Z,1.80
2022-12-26T00:12:50.038Z,2.03
2022-12-26T00:13:55.855Z,2.03
2022-12-26T00:14:57.895Z,2.00
2022-12-26T00:16:01.001Z,1.73
2022-12-26T00:17:04.151Z,1.90
2022-12-26T00:18:06.278Z,1.70
2022-12-26T00:19:09.816Z,1.90
2022-12-26T00:20:12.165Z,1.93
2022-12-26T00:21:17.169Z,2.00
2022-12-26T00:22:19.203Z,2.00
2022-12-26T00:23:22.199Z,2.00
2022-12-26T00:24:24.240Z,1.90
2022-12-26T00:25:30.037Z,1.77
2022-12-26T00:26:33.323Z,1.90
2022-12-26T00:27:36.378Z,2.00
2022-12-26T00:28:38.529Z,1.83
2022-12-26T00:29:41.567Z,1.90
2022-12-26T00:30:43.675Z,1.80
2022-12-26T00:31:46.948Z,2.20
2022-12-26T00:32:49.111Z,1.90
2022-12-26T00:33:52.218Z,1.97
2022-12-26T00:34:54.291Z,2.00
2022-12-26T00:36:02.566Z,1.80
2022-12-26T00:37:04.600Z,1.80
2022-12-26T00:38:07.970Z,1.80
2022-12-26T00:39:10.138Z,2.13
2022-12-26T00:40:13.610Z,1.87
2022-12-26T00:41:17.779Z,2.10
2022-12-26T00:42:20.819Z,1.87
2022-12-26T00:43:22.828Z,1.90
2022-12-26T00:44:25.795Z,1.90
2022-12-26T00:45:28.902Z,1.80
2022-12-26T00:46:32.845Z,2.10
2022-12-26T00:47:34.890Z,2.00
2022-12-26T00:48:38.032Z,2.00
2022-12-26T00:50:13.864Z,1.90
2022-12-26T00:51:03.135Z,2.17
2022-12-26T00:52:06.362Z,2.10
2022-12-26T00:53:08.411Z,2.10
2022-12-26T00:58:23.329Z,1.73
2022-12-26T00:59:25.553Z,2.33
2022-12-26T01:00:30.806Z,1.73
2022-12-26T01:01:34.172Z,1.90
2022-12-26T01:02:39.483Z,2.17
2022-12-26T01:03:47.104Z,1.80
2022-12-26T01:04:49.133Z,1.80
2022-12-26T01:05:52.914Z,1.67
2022-12-26T01:06:54.959Z,1.77
2022-12-26T01:08:20.545Z,2.10
2022-12-26T01:09:21.503Z,1.83
2022-12-26T01:10:23.590Z,1.80
2022-12-26T01:11:41.000Z,2.00
2022-12-26T01:12:43.190Z,1.93
2022-12-26T01:13:46.167Z,1.80
2022-12-26T01:14:48.229Z,1.87
2022-12-26T01:15:52.584Z,1.73
2022-12-26T01:16:54.672Z,1.70
2022-12-26T01:17:59.427Z,2.20
2022-12-26T01:19:01.761Z,1.80
2022-12-26T01:20:05.419Z,2.10
2022-12-26T01:21:11.474Z,1.97
2022-12-26T01:22:13.517Z,2.03
2022-12-26T01:23:16.851Z,2.20
2022-12-26T01:24:18.882Z,1.93
2022-12-26T01:25:21.969Z,1.90
2022-12-26T01:26:24.080Z,1.90
2022-12-26T01:27:28.446Z,1.90
2022-12-26T01:28:31.702Z,2.00
2022-12-26T01:29:34.853Z,1.60
2022-12-26T01:30:37.805Z,2.20
2022-12-26T01:31:40.832Z,2.00
2022-12-26T01:32:42.870Z,1.83
2022-12-26T01:33:45.978Z,1.80
2022-12-26T01:34:48.204Z,2.00
2022-12-26T01:35:52.747Z,2.00
2022-12-26T01:36:55.271Z,1.93
2022-12-26T01:37:58.733Z,1.93
2022-12-26T01:39:00.814Z,2.00
2022-12-26T01:40:03.900Z,2.00
2022-12-26T01:41:19.660Z,1.90
2022-12-26T01:42:25.175Z,1.80
2022-12-26T01:43:48.692Z,1.90
2022-12-26T01:45:03.206Z,1.70
2022-12-26T01:46:06.948Z,1.93
2022-12-26T01:47:10.047Z,1.90
2022-12-26T01:48:17.291Z,1.93
2022-12-26T01:49:31.180Z,1.70
2022-12-26T01:50:40.533Z,1.80
2022-12-26T01:51:47.697Z,1.90
2022-12-26T01:52:49.919Z,1.90
2022-12-26T01:54:39.855Z,1.90
2022-12-26T01:55:22.116Z,1.70
2022-12-26T01:56:30.650Z,1.70
2022-12-26T01:57:38.409Z,1.80
2022-12-26T01:58:47.243Z,1.70
2022-12-26T01:59:51.789Z,1.80
2022-12-26T02:00:55.496Z,1.80
2022-12-26T02:01:59.957Z,1.90
2022-12-26T02:03:20.797Z,1.90
2022-12-26T02:04:44.454Z,1.80
2022-12-26T02:05:47.499Z,2.10
2022-12-26T02:06:50.123Z,1.90
2022-12-26T02:07:53.297Z,1.90
2022-12-26T02:08:55.847Z,2.07
2022-12-26T02:09:58.925Z,2.07
2022-12-26T02:11:08.061Z,1.80
2022-12-26T02:12:34.130Z,1.80
2022-12-26T02:13:40.092Z,1.80
2022-12-26T02:14:45.655Z,1.70
2022-12-26T02:15:49.220Z,2.07
2022-12-26T02:16:51.484Z,1.97
2022-12-26T02:17:55.031Z,1.90
2022-12-26T02:18:57.131Z,1.87
2022-12-26T02:20:06.427Z,1.80
2022-12-26T02:21:44.623Z,1.80
2022-12-26T02:23:16.745Z,1.73
2022-12-26T02:24:41.501Z,1.90
2022-12-26T02:26:26.239Z,2.10
2022-12-26T02:27:52.483Z,1.77
2022-12-26T02:29:46.344Z,2.10
2022-12-26T02:30:58.120Z,1.77
2022-12-26T02:32:10.202Z,1.80
2022-12-26T02:33:27.278Z,1.80
2022-12-26T02:34:39.307Z,1.87
2022-12-26T02:35:58.000Z,1.70
2022-12-26T02:37:23.190Z,1.60
2022-12-26T02:38:34.436Z,1.70
2022-12-26T02:39:57.230Z,2.10
2022-12-26T02:41:11.958Z,1.70
2022-12-26T02:42:28.554Z,1.80
2022-12-26T02:43:38.641Z,2.10
2022-12-26T02:45:06.331Z,2.10
2022-12-26T02:46:39.190Z,1.73
2022-12-26T02:53:20.985Z,1.70
2022-12-26T02:54:51.015Z,1.70
2022-12-26T02:56:13.001Z,2.00
2022-12-26T02:57:38.328Z,1.83
2022-12-26T02:59:05.385Z,2.10
2022-12-26T03:00:33.331Z,1.80
2022-12-26T03:01:58.571Z,1.77
2022-12-26T03:03:22.740Z,1.70
2022-12-26T03:04:47.202Z,1.80
2022-12-26T03:06:11.126Z,1.70
2022-12-26T03:07:36.963Z,2.03
2022-12-26T03:09:01.941Z,1.60
2022-12-26T03:10:28.271Z,1.60
2022-12-26T03:11:53.319Z,1.90
2022-12-26T03:13:13.834Z,1.80
2022-12-26T03:14:19.199Z,2.00
2022-12-26T03:15:25.934Z,2.00
2022-12-26T03:16:48.184Z,1.90
2022-12-26T03:17:57.497Z,1.90
2022-12-26T03:19:03.461Z,1.80
2022-12-26T03:20:12.497Z,2.00
2022-12-26T03:25:01.896Z,1.90
2022-12-26T03:26:26.952Z,1.90
2022-12-26T03:27:28.998Z,1.73
2022-12-26T03:28:31.310Z,2.00
2022-12-26T03:30:06.220Z,2.07
2022-12-26T03:31:11.550Z,1.80
2022-12-26T03:32:14.232Z,2.30
2022-12-26T03:33:39.500Z,1.77
2022-12-26T03:34:44.893Z,1.87
2022-12-26T03:35:46.959Z,1.80
2022-12-26T03:37:01.645Z,1.70
2022-12-26T03:38:08.858Z,2.00
2022-12-26T03:39:18.404Z,2.00
2022-12-26T03:40:50.633Z,1.77
2022-12-26T03:42:26.514Z,1.83
2022-12-26T03:44:04.852Z,1.90
2022-12-26T03:45:36.368Z,1.90
2022-12-26T03:47:08.860Z,1.97
2022-12-26T03:48:43.484Z,1.70
2022-12-26T03:50:06.247Z,1.87
2022-12-26T03:51:32.630Z,1.73
2022-12-26T03:53:00.478Z,1.90
2022-12-26T03:54:27.566Z,1.60
2022-12-26T03:55:54.717Z,1.90
2022-12-26T03:57:23.251Z,1.70
2022-12-26T03:58:48.286Z,1.80
2022-12-26T04:00:14.301Z,2.10
2022-12-26T04:01:39.162Z,2.00
2022-12-26T04:03:04.761Z,1.80
2022-12-26T04:04:39.019Z,2.17
2022-12-26T04:06:04.320Z,2.00
2022-12-26T04:07:28.905Z,2.00
2022-12-26T04:09:00.899Z,1.83
2022-12-26T04:10:25.772Z,2.03
2022-12-26T04:11:47.447Z,1.90
2022-12-26T04:13:10.284Z,2.00
2022-12-26T04:14:49.445Z,1.77
2022-12-26T04:16:14.906Z,1.97
2022-12-26T04:17:44.618Z,2.10
2022-12-26T04:19:22.614Z,1.80
2022-12-26T04:20:34.413Z,1.90
2022-12-26T04:22:03.593Z,1.73
2022-12-26T04:23:28.719Z,2.17
2022-12-26T04:24:57.758Z,1.90
2022-12-26T04:26:23.187Z,2.17
2022-12-26T04:27:47.503Z,2.03
2022-12-26T04:29:08.321Z,1.90
2022-12-26T04:30:29.806Z,2.20
2022-12-26T04:31:55.068Z,1.70
2022-12-26T04:33:23.623Z,1.77
2022-12-26T04:34:50.925Z,2.20
2022-12-26T04:36:18.379Z,1.90
2022-12-26T04:37:43.661Z,1.83
2022-12-26T04:39:12.042Z,1.70
2022-12-26T04:40:38.478Z,2.10
2022-12-26T04:42:01.355Z,1.83
2022-12-26T04:43:47.092Z,1.63
2022-12-26T04:44:46.927Z,2.00
2022-12-26T04:45:49.619Z,1.80
2022-12-26T04:46:55.084Z,2.00
2022-12-26T04:48:15.831Z,1.70
2022-12-26T04:49:38.510Z,2.20
2022-12-26T04:50:50.405Z,1.80
2022-12-26T04:51:56.959Z,2.00
2022-12-26T04:52:59.102Z,2.00
2022-12-26T04:54:02.287Z,1.80
2022-12-26T04:55:05.238Z,1.90
2022-12-26T04:56:09.786Z,1.63
2022-12-26T04:57:12.024Z,1.77
2022-12-26T04:58:15.116Z,1.93
2022-12-26T04:59:18.162Z,2.03
2022-12-26T05:00:21.759Z,1.83
2022-12-26T05:01:42.594Z,1.80
2022-12-26T05:03:03.191Z,2.00
2022-12-26T05:04:23.726Z,2.00
2022-12-26T05:05:44.225Z,1.60
2022-12-26T05:07:04.610Z,1.67
2022-12-26T05:08:36.454Z,2.10
2022-12-26T05:09:39.730Z,1.93
2022-12-26T05:10:41.822Z,1.70
2022-12-26T05:11:47.224Z,1.57
2022-12-26T05:12:49.810Z,1.83
2022-12-26T05:13:54.047Z,1.83
2022-12-26T05:14:56.119Z,1.73
2022-12-26T05:16:16.897Z,2.10
2022-12-26T05:17:37.402Z,1.90
2022-12-26T05:18:57.778Z,1.90
2022-12-26T05:20:18.392Z,1.70
2022-12-26T05:21:35.326Z,1.77
2022-12-26T05:22:59.591Z,1.80
2022-12-26T05:24:21.969Z,1.70
2022-12-26T05:25:45.249Z,2.20
2022-12-26T05:27:05.698Z,2.33
2022-12-26T05:28:28.511Z,1.93
2022-12-26T05:29:31.490Z,1.70
2022-12-26T05:30:33.563Z,2.20
2022-12-26T05:31:37.390Z,2.10
2022-12-26T05:32:58.254Z,2.03
2022-12-26T05:34:06.551Z,1.80
2022-12-26T05:35:09.267Z,2.10
2022-12-26T05:36:13.692Z,2.37
2022-12-26T05:37:15.704Z,2.00
2022-12-26T05:38:18.762Z,2.03
2022-12-26T05:39:22.609Z,1.87
2022-12-26T05:40:25.617Z,2.10
2022-12-26T05:41:27.929Z,2.10
2022-12-26T05:42:31.962Z,2.03
2022-12-26T05:43:33.995Z,1.90
2022-12-26T05:44:37.003Z,1.80
2022-12-26T05:45:39.065Z,1.80
2022-12-26T05:46:43.393Z,1.97
2022-12-26T05:47:49.990Z,2.00
2022-12-26T05:48:54.976Z,1.80
2022-12-26T05:49:57.030Z,1.77
2022-12-26T05:51:00.715Z,1.80
2022-12-26T05:52:02.863Z,2.03
2022-12-26T05:53:05.902Z,1.80
2022-12-26T05:54:08.962Z,2.20
2022-12-26T05:55:12.327Z,1.97
2022-12-26T05:56:17.325Z,2.00
2022-12-26T05:57:19.414Z,2.07
2022-12-26T05:58:22.886Z,2.00
2022-12-26T05:59:25.045Z,2.00
2022-12-26T06:00:29.189Z,1.73
2022-12-26T06:01:32.413Z,1.73
2022-12-26T06:02:34.600Z,1.93
2022-12-26T06:03:38.685Z,1.83
2022-12-26T06:04:40.922Z,1.90
2022-12-26T06:05:44.262Z,1.80
2022-12-26T06:06:46.293Z,1.87
2022-12-26T06:07:49.609Z,1.90
2022-12-26T06:08:53.864Z,1.83
2022-12-26T06:09:56.891Z,1.80
2022-12-26T06:11:03.516Z,1.80
2022-12-26T06:12:07.025Z,1.90
2022-12-26T06:13:09.057Z,2.00
2022-12-26T06:14:12.038Z,2.03
2022-12-26T06:15:14.121Z,1.73
2022-12-26T06:16:19.023Z,2.20
2022-12-26T06:17:21.204Z,1.67
2022-12-26T06:18:24.205Z,1.73
2022-12-26T06:19:27.202Z,1.97
2022-12-26T06:20:29.249Z,2.00
2022-12-26T06:21:32.318Z,2.00
2022-12-26T06:22:34.365Z,1.80
2022-12-26T06:23:38.110Z,1.77
2022-12-26T06:24:40.352Z,1.80
2022-12-26T06:25:43.364Z,1.90
2022-12-26T06:26:46.725Z,1.70
2022-12-26T06:27:49.735Z,2.00
2022-12-26T06:28:51.934Z,1.70
2022-12-26T06:29:54.944Z,1.60
2022-12-26T06:31:03.280Z,1.70
2022-12-26T06:32:06.868Z,1.87
2022-12-26T06:33:08.921Z,1.80
2022-12-26T06:34:12.889Z,2.47
2022-12-26T06:35:15.076Z,1.70
2022-12-26T06:36:19.553Z,1.80
2022-12-26T06:37:21.579Z,1.77
2022-12-26T06:38:24.582Z,2.07
2022-12-26T06:39:26.765Z,1.77
2022-12-26T06:40:30.027Z,1.80
2022-12-26T06:41:32.125Z,2.10
2022-12-26T06:42:36.456Z,1.70
2022-12-26T06:43:38.653Z,1.97
2022-12-26T06:44:41.747Z,1.90
2022-12-26T06:45:44.287Z,1.80
2022-12-26T06:46:47.587Z,2.07
2022-12-26T06:47:49.627Z,1.93
2022-12-26T06:48:54.427Z,1.70
2022-12-26T06:49:56.471Z,1.70
2022-12-26T06:50:59.547Z,1.70
2022-12-26T06:52:01.662Z,1.87
2022-12-26T06:53:04.676Z,1.53
2022-12-26T06:54:06.975Z,1.80
2022-12-26T06:55:10.219Z,1.90
2022-12-26T06:56:13.966Z,1.90
2022-12-26T06:57:16.990Z,1.80
2022-12-26T06:58:20.387Z,1.80
2022-12-26T06:59:23.674Z,1.90
2022-12-26T07:00:25.794Z,1.60
2022-12-26T07:01:31.259Z,1.90
2022-12-26T07:02:33.596Z,1.67
2022-12-26T07:03:36.956Z,1.77
2022-12-26T07:04:38.967Z,1.97
2022-12-26T07:05:41.944Z,1.77
2022-12-26T07:06:44.204Z,1.80
2022-12-26T07:07:52.256Z,1.80
2022-12-26T07:08:57.697Z,1.80
2022-12-26T07:10:00.727Z,1.67
2022-12-26T07:11:02.961Z,1.63
2022-12-26T07:12:06.432Z,1.70
2022-12-26T07:13:08.436Z,1.80
2022-12-26T07:14:13.195Z,1.57
2022-12-26T07:15:15.544Z,1.70
2022-12-26T07:16:18.813Z,1.97
2022-12-26T07:17:20.980Z,1.73
2022-12-26T07:18:24.136Z,1.70
2022-12-26T07:19:27.215Z,1.87
2022-12-26T07:20:29.270Z,2.13
2022-12-26T07:21:39.760Z,2.00
2022-12-26T07:22:42.619Z,1.70
2022-12-26T07:23:46.035Z,1.87
2022-12-26T07:24:48.103Z,1.90
2022-12-26T07:25:51.172Z,1.77
2022-12-26T07:26:53.278Z,1.90
2022-12-26T07:27:56.364Z,1.87
2022-12-26T07:28:59.800Z,2.00
2022-12-26T07:30:04.378Z,2.10
2022-12-26T07:31:06.452Z,1.83
2022-12-26T07:32:09.584Z,1.80
2022-12-26T07:33:11.613Z,1.90
2022-12-26T07:34:14.972Z,2.17
2022-12-26T07:35:17.036Z,2.00
2022-12-26T07:36:20.546Z,1.90
2022-12-26T07:37:22.564Z,2.10
2022-12-26T07:38:25.559Z,2.67
2022-12-26T07:39:27.688Z,2.47
2022-12-26T07:40:30.842Z,2.20
2022-12-26T07:41:51.630Z,2.30
2022-12-26T07:42:55.334Z,2.43
2022-12-26T07:43:57.431Z,2.43
2022-12-26T07:45:00.460Z,2.40
2022-12-26T07:46:05.929Z,2.50
2022-12-26T07:47:08.988Z,2.63
2022-12-26T07:48:11.090Z,2.63
2022-12-26T07:51:19.223Z,2.43
2022-12-26T07:52:21.566Z,2.70
2022-12-26T07:53:24.620Z,2.30
2022-12-26T07:54:28.570Z,2.90
2022-12-26T07:55:31.655Z,2.80
2022-12-26T07:56:34.151Z,2.70
2022-12-26T07:57:52.573Z,2.80
2022-12-26T07:58:54.636Z,2.87
2022-12-26T07:59:57.737Z,3.00
2022-12-26T08:01:01.416Z,2.97
2022-12-26T08:02:06.220Z,2.80
2022-12-26T08:03:09.890Z,2.43
2022-12-26T08:04:14.160Z,3.00
2022-12-26T08:05:17.234Z,2.90
2022-12-26T08:06:20.938Z,3.13
2022-12-26T08:07:23.423Z,3.13
2022-12-26T08:08:26.651Z,2.60
2022-12-26T08:09:28.674Z,2.80
2022-12-26T08:10:31.677Z,2.70
2022-12-26T08:11:35.118Z,2.80
2022-12-26T08:12:38.129Z,2.80
2022-12-26T08:13:40.167Z,2.70
2022-12-26T08:14:43.270Z,2.70
2022-12-26T08:15:45.329Z,2.50
2022-12-26T08:16:53.179Z,2.77
2022-12-26T08:17:57.001Z,3.07
2022-12-26T08:19:03.630Z,2.33
2022-12-26T08:20:06.928Z,2.53
2022-12-26T08:21:10.087Z,2.60
2022-12-26T08:23:15.004Z,2.83
2022-12-26T08:24:17.199Z,3.00
2022-12-26T08:25:22.008Z,2.93
2022-12-26T08:26:24.355Z,2.77
2022-12-26T08:27:27.355Z,2.63
2022-12-26T08:28:29.409Z,2.50
2022-12-26T08:29:32.388Z,2.57
2022-12-26T08:32:42.511Z,3.07
2022-12-26T08:33:49.227Z,3.03
2022-12-26T08:34:51.354Z,2.80
2022-12-26T08:35:54.473Z,3.07
2022-12-26T08:36:57.567Z,3.03
2022-12-26T08:37:59.611Z,3.20
2022-12-26T08:39:02.641Z,3.47
2022-12-26T08:40:07.248Z,3.30
2022-12-26T08:41:10.378Z,3.37
2022-12-26T08:42:12.402Z,3.30
2022-12-26T08:43:45.052Z,3.27
2022-12-26T08:44:38.349Z,3.10
2022-12-26T08:45:40.376Z,3.20
2022-12-26T08:46:44.474Z,3.20
2022-12-26T08:47:46.662Z,3.50
2022-12-26T08:48:52.002Z,3.47
2022-12-26T08:49:54.074Z,3.40
2022-12-26T08:50:58.839Z,3.20
2022-12-26T08:52:01.884Z,3.67
2022-12-26T08:53:03.996Z,2.87
2022-12-26T08:54:07.362Z,3.47
2022-12-26T08:55:10.021Z,3.53
2022-12-26T08:56:15.325Z,3.70
2022-12-26T08:57:17.392Z,3.20
2022-12-26T08:58:20.650Z,3.20
2022-12-26T08:59:23.925Z,3.33
2022-12-26T09:00:26.473Z,3.53
2022-12-26T09:01:31.494Z,3.63
2022-12-26T09:02:33.838Z,3.60
2022-12-26T09:03:37.244Z,3.43
2022-12-26T09:04:41.594Z,3.27
2022-12-26T09:05:43.990Z,3.60
2022-12-26T09:06:46.994Z,3.50
2022-12-26T09:07:49.077Z,3.40
2022-12-26T09:08:52.857Z,3.50
2022-12-26T09:09:54.874Z,3.53
2022-12-26T09:10:58.097Z,3.70
2022-12-26T09:12:00.295Z,3.70
2022-12-26T09:13:03.295Z,4.13
2022-12-26T09:14:06.752Z,4.10
2022-12-26T09:15:09.521Z,3.70
2022-12-26T09:16:15.098Z,3.73
2022-12-26T09:17:17.320Z,3.70
2022-12-26T09:18:21.176Z,3.60
2022-12-26T09:19:23.253Z,4.00
2022-12-26T09:20:27.581Z,3.90
2022-12-26T09:21:30.623Z,4.17
2022-12-26T09:22:51.528Z,3.33
2022-12-26T09:23:58.252Z,3.80
2022-12-26T09:25:00.283Z,3.53
2022-12-26T09:26:07.795Z,3.50
2022-12-26T09:27:10.459Z,3.77
2022-12-26T09:28:13.468Z,4.23
2022-12-26T09:29:15.536Z,3.23
2022-12-26T09:30:18.924Z,4.07
2022-12-26T09:31:23.750Z,3.60
2022-12-26T09:32:26.831Z,3.80
2022-12-26T09:33:29.725Z,3.57
2022-12-26T09:34:32.768Z,3.83
2022-12-26T09:35:40.352Z,3.43
2022-12-26T09:36:42.360Z,4.33
2022-12-26T09:37:45.466Z,3.40
2022-12-26T09:38:48.932Z,3.20
2022-12-26T09:39:51.918Z,3.33
2022-12-26T09:41:07.538Z,3.63
2022-12-26T09:42:22.889Z,3.27
2022-12-26T09:43:33.170Z,3.80
2022-12-26T09:44:49.419Z,3.70
2022-12-26T09:46:07.108Z,3.80
2022-12-26T09:47:19.913Z,3.90
2022-12-26T09:48:27.351Z,3.70
2022-12-26T09:49:33.544Z,3.63
2022-12-26T09:50:42.929Z,4.17
2022-12-26T09:51:50.269Z,3.80
2022-12-26T09:52:56.675Z,4.23
2022-12-26T09:54:01.331Z,3.70
2022-12-26T09:55:07.894Z,3.43
2022-12-26T09:56:37.046Z,3.57
2022-12-26T09:57:42.633Z,4.00
2022-12-26T09:58:49.090Z,3.10
2022-12-26T09:59:55.896Z,3.70
2022-12-26T10:01:06.831Z,3.97
2022-12-26T10:02:18.045Z,3.50
2022-12-26T10:03:21.863Z,3.90
2022-12-26T10:04:29.600Z,3.90
2022-12-26T10:05:48.674Z,3.60
2022-12-26T10:07:00.163Z,4.23
2022-12-26T10:08:21.139Z,4.03
2022-12-26T10:09:40.070Z,3.93
2022-12-26T10:10:47.993Z,4.20
2022-12-26T10:12:15.669Z,3.87
2022-12-26T10:13:28.612Z,3.73
2022-12-26T10:14:41.124Z,4.13
2022-12-26T10:15:49.430Z,3.77
2022-12-26T10:16:59.755Z,3.63
2022-12-26T10:18:13.029Z,3.90
2022-12-26T10:19:34.836Z,3.87
2022-12-26T10:20:52.981Z,4.53
2022-12-26T10:22:07.981Z,4.00
2022-12-26T10:23:30.983Z,4.03
2022-12-26T10:24:36.183Z,3.60
2022-12-26T10:25:44.552Z,3.87
2022-12-26T10:26:51.207Z,4.23
2022-12-26T10:27:53.608Z,4.00
2022-12-26T10:29:00.337Z,4.07
2022-12-26T10:30:06.649Z,3.70
2022-12-26T10:31:17.121Z,3.80
2022-12-26T10:32:27.722Z,4.30
2022-12-26T10:33:39.407Z,3.90
2022-12-26T10:34:43.834Z,3.93
2022-12-26T10:35:48.780Z,3.80
2022-12-26T10:36:54.213Z,3.77
2022-12-26T10:38:00.839Z,3.20
2022-12-26T10:39:07.489Z,3.87
2022-12-26T10:40:19.628Z,3.37
2022-12-26T10:41:27.176Z,3.43
2022-12-26T10:42:34.372Z,3.07
2022-12-26T10:43:42.758Z,3.40
2022-12-26T10:44:44.868Z,3.30
2022-12-26T10:45:55.648Z,3.30
2022-12-26T10:47:17.361Z,3.30
2022-12-26T10:48:19.575Z,3.27
2022-12-26T10:49:25.290Z,3.10
2022-12-26T10:50:30.332Z,3.20
2022-12-26T10:51:34.750Z,3.37
2022-12-26T10:52:40.828Z,3.13
2022-12-26T10:53:47.035Z,2.97
2022-12-26T10:55:28.417Z,3.40
2022-12-26T10:56:18.945Z,3.37
2022-12-26T10:57:23.250Z,2.90
2022-12-26T10:58:30.997Z,3.03
2022-12-26T10:59:43.289Z,3.23
2022-12-26T11:00:45.648Z,3.80
2022-12-26T11:01:49.633Z,3.30
2022-12-26T11:03:07.519Z,3.57
2022-12-26T11:04:18.810Z,2.87
2022-12-26T11:05:48.953Z,2.60
2022-12-26T11:06:52.693Z,2.43
2022-12-26T11:07:57.518Z,2.30
2022-12-26T11:09:00.906Z,2.33
2022-12-26T11:10:05.430Z,2.37
2022-12-26T11:11:12.707Z,2.60
2022-12-26T11:12:20.648Z,2.27
2022-12-26T11:13:24.789Z,2.23
2022-12-26T11:14:34.145Z,2.37
2022-12-26T11:15:41.344Z,2.10
2022-12-26T11:16:43.722Z,1.97
2022-12-26T11:17:50.545Z,1.90
2022-12-26T11:18:54.020Z,1.70
2022-12-26T11:20:24.368Z,1.67
2022-12-26T11:21:28.442Z,1.60
2022-12-26T11:22:32.823Z,2.00
2022-12-26T11:23:34.841Z,1.93
2022-12-26T11:24:37.886Z,1.90
2022-12-26T11:25:48.932Z,1.70
2022-12-26T11:26:52.005Z,2.90
2022-12-26T11:27:56.424Z,3.20
2022-12-26T11:29:13.248Z,3.67
2022-12-26T11:30:25.723Z,1.80
2022-12-26T11:31:30.914Z,1.77
2022-12-26T11:32:33.038Z,1.70
2022-12-26T11:33:42.308Z,1.60
2022-12-26T11:34:46.436Z,1.50
2022-12-26T11:35:52.269Z,1.60
2022-12-26T11:36:55.293Z,1.40
2022-12-26T11:37:59.079Z,1.30
2022-12-26T11:39:06.071Z,1.60
2022-12-26T11:40:17.157Z,1.30
2022-12-26T11:41:36.641Z,1.50
2022-12-26T11:42:39.754Z,1.50
2022-12-26T11:43:42.814Z,1.93
2022-12-26T11:44:49.340Z,1.70
2022-12-26T11:45:51.392Z,2.03
2022-12-26T11:46:58.835Z,1.70
2022-12-26T11:48:01.513Z,1.90
2022-12-26T11:49:04.837Z,1.47
2022-12-26T11:50:11.342Z,1.53
2022-12-26T11:51:14.948Z,1.60
2022-12-26T11:52:37.708Z,1.50
2022-12-26T11:53:41.308Z,1.40
2022-12-26T11:54:50.475Z,1.30
2022-12-26T11:56:00.612Z,1.40
2022-12-26T11:57:14.198Z,1.60
2022-12-26T11:58:21.636Z,1.30
2022-12-26T11:59:23.851Z,1.30
2022-12-26T12:00:29.334Z,1.60
2022-12-26T12:01:31.415Z,1.50
2022-12-26T12:02:42.773Z,1.50
2022-12-26T12:03:49.557Z,1.50
2022-12-26T12:04:55.824Z,1.70
2022-12-26T12:06:05.377Z,1.20
2022-12-26T12:07:19.484Z,1.30
2022-12-26T12:08:34.819Z,1.40
2022-12-26T12:09:45.373Z,1.37
2022-12-26T12:11:00.989Z,1.40
2022-12-26T12:12:08.536Z,1.23
2022-12-26T12:13:21.619Z,2.00
2022-12-26T12:14:32.628Z,1.30
2022-12-26T12:15:43.929Z,1.20
2022-12-26T12:16:56.837Z,1.30
2022-12-26T12:18:04.781Z,1.53
2022-12-26T12:19:19.737Z,1.30
2022-12-26T12:20:32.094Z,1.43
2022-12-26T12:21:43.451Z,1.23
2022-12-26T12:23:03.663Z,1.30
2022-12-26T12:24:28.704Z,1.40
2022-12-26T12:25:57.805Z,1.30
2022-12-26T12:27:07.947Z,1.40
2022-12-26T12:28:31.637Z,1.47
2022-12-26T12:29:46.451Z,1.50
2022-12-26T12:30:58.435Z,1.40
2022-12-26T12:32:10.018Z,1.60
2022-12-26T12:33:27.217Z,1.80
2022-12-26T12:34:45.025Z,1.50
2022-12-26T12:35:58.309Z,1.50
2022-12-26T12:37:12.850Z,1.30
2022-12-26T12:38:31.519Z,1.60
2022-12-26T12:39:44.280Z,1.53
2022-12-26T12:40:55.414Z,1.63
2022-12-26T12:42:12.750Z,2.20
2022-12-26T12:43:21.256Z,2.27
2022-12-26T12:44:34.589Z,2.53
2022-12-26T12:45:47.758Z,1.67
2022-12-26T12:47:02.928Z,3.10
2022-12-26T12:48:33.695Z,1.50
2022-12-26T12:49:48.079Z,2.13
2022-12-26T12:51:00.300Z,1.33
2022-12-26T12:52:14.537Z,1.47
2022-12-26T12:53:25.036Z,1.70
2022-12-26T12:55:01.696Z,1.80
2022-12-26T12:56:17.626Z,1.90
2022-12-26T12:57:28.157Z,1.50
2022-12-26T12:58:39.513Z,1.97
2022-12-26T12:59:49.238Z,1.70
2022-12-26T13:00:56.277Z,2.00
2022-12-26T13:02:09.188Z,1.73
2022-12-26T13:03:25.313Z,1.70
2022-12-26T13:04:34.189Z,1.40
2022-12-26T13:05:45.383Z,1.20
2022-12-26T13:06:53.775Z,1.30
2022-12-26T13:08:02.570Z,1.40
2022-12-26T13:09:11.049Z,1.20
2022-12-26T13:10:19.824Z,1.30
2022-12-26T13:11:27.317Z,1.50
2022-12-26T13:12:35.835Z,1.60
2022-12-26T13:13:42.258Z,1.50
2022-12-26T13:14:50.056Z,1.70
2022-12-26T13:15:57.241Z,1.80
2022-12-26T13:17:05.786Z,1.40
2022-12-26T13:18:14.183Z,2.30
2022-12-26T13:19:21.005Z,2.10
2022-12-26T13:20:30.345Z,2.13
2022-12-26T13:21:38.112Z,1.80
2022-12-26T13:23:12.629Z,2.20
2022-12-26T13:24:26.082Z,1.93
2022-12-26T13:25:34.224Z,1.33
2022-12-26T13:26:39.443Z,1.83
2022-12-26T13:27:43.456Z,2.30
2022-12-26T13:28:53.819Z,1.73
2022-12-26T13:29:56.927Z,1.60
2022-12-26T13:30:58.998Z,1.40
2022-12-26T13:32:04.933Z,1.20
2022-12-26T13:33:13.406Z,1.17
2022-12-26T13:34:18.232Z,1.40
2022-12-26T13:36:44.458Z,1.40
2022-12-26T13:37:56.796Z,1.40
2022-12-26T13:39:30.625Z,1.30
2022-12-26T13:40:34.300Z,1.30
2022-12-26T13:41:55.134Z,1.30
2022-12-26T13:43:21.835Z,1.10
2022-12-26T13:44:26.372Z,1.30
2022-12-26T13:45:50.872Z,1.00
2022-12-26T13:46:58.662Z,1.20
2022-12-26T13:48:01.009Z,1.30
2022-12-26T13:49:04.884Z,1.30
2022-12-26T13:50:51.556Z,1.20
2022-12-26T13:52:19.205Z,1.37
2022-12-26T13:53:31.019Z,1.30
2022-12-26T13:54:34.727Z,1.30
2022-12-26T13:55:43.919Z,1.40
2022-12-26T13:57:15.741Z,1.20
2022-12-26T13:58:48.505Z,1.20
2022-12-26T14:00:07.299Z,1.50
2022-12-26T14:01:22.227Z,1.30
2022-12-26T14:03:17.825Z,1.30
2022-12-26T14:04:39.145Z,1.50
2022-12-26T14:05:49.365Z,1.40
2022-12-26T14:07:05.741Z,1.30
2022-12-26T14:08:15.109Z,1.40
2022-12-26T14:09:33.814Z,1.23
2022-12-26T14:10:43.193Z,1.30
2022-12-26T14:12:10.820Z,1.90
2022-12-26T14:13:35.396Z,1.30
2022-12-26T14:14:54.629Z,1.20
2022-12-26T14:16:06.940Z,1.60
2022-12-26T14:17:20.773Z,1.57
2022-12-26T14:18:37.545Z,1.53
2022-12-26T14:19:50.870Z,1.40
2022-12-26T14:21:13.227Z,1.27
2022-12-26T14:22:22.968Z,1.50
2022-12-26T14:23:41.284Z,1.30
2022-12-26T14:24:59.851Z,1.30
2022-12-26T14:26:08.890Z,1.50
2022-12-26T14:27:27.921Z,1.50
2022-12-26T14:28:36.993Z,1.40
2022-12-26T14:29:47.179Z,1.30
2022-12-26T14:31:02.525Z,1.27
2022-12-26T14:32:18.604Z,1.50
2022-12-26T14:33:29.186Z,1.40
2022-12-26T14:34:55.525Z,1.30
2022-12-26T14:36:16.331Z,1.40
2022-12-26T14:37:24.711Z,1.30
2022-12-26T14:38:38.661Z,1.37
2022-12-26T14:39:51.079Z,1.43
2022-12-26T14:41:04.658Z,1.60
2022-12-26T14:42:43.492Z,1.30
2022-12-26T14:43:46.838Z,1.20
2022-12-26T14:44:52.130Z,1.60
2022-12-26T14:45:54.988Z,1.30
2022-12-26T14:47:02.676Z,1.20
2022-12-26T14:48:42.768Z,1.40
2022-12-26T14:49:46.352Z,1.40
2022-12-26T14:50:50.287Z,1.50
2022-12-26T14:51:53.694Z,1.40
2022-12-26T14:53:15.969Z,1.30
2022-12-26T14:54:50.761Z,1.20
2022-12-26T14:55:55.166Z,1.30
2022-12-26T14:56:58.714Z,1.57
2022-12-26T14:58:26.185Z,1.30
2022-12-26T14:59:31.276Z,1.53
2022-12-26T15:00:37.532Z,1.43
2022-12-26T15:01:49.459Z,1.30
2022-12-26T15:03:11.700Z,1.50
2022-12-26T15:04:52.420Z,1.43
2022-12-26T15:06:12.491Z,1.53
2022-12-26T15:07:39.821Z,1.40
2022-12-26T15:09:04.252Z,1.33
2022-12-26T15:10:43.708Z,1.40
2022-12-26T15:12:13.848Z,1.40
2022-12-26T15:13:52.824Z,1.40
2022-12-26T15:15:27.336Z,1.53
2022-12-26T15:16:42.435Z,1.70
2022-12-26T15:17:57.386Z,1.20
2022-12-26T15:19:48.497Z,1.30
2022-12-26T15:21:12.261Z,1.20
2022-12-26T15:22:48.321Z,1.20
2022-12-26T15:25:17.133Z,1.33
2022-12-26T15:26:24.032Z,1.40
2022-12-26T15:27:46.026Z,1.40
2022-12-26T15:29:16.435Z,1.40
2022-12-26T15:30:22.592Z,1.30
2022-12-26T15:31:41.803Z,1.50
2022-12-26T15:32:53.623Z,1.40
2022-12-26T15:34:00.625Z,1.70
2022-12-26T15:35:14.724Z,1.37
2022-12-26T15:36:25.636Z,1.50
2022-12-26T15:37:44.040Z,1.63
2022-12-26T15:38:51.909Z,1.70
2022-12-26T15:40:01.185Z,1.40
2022-12-26T15:41:13.511Z,1.60
2022-12-26T15:42:29.650Z,1.60
2022-12-26T15:43:50.143Z,1.43
2022-12-26T15:45:03.692Z,1.53
2022-12-26T15:46:18.468Z,1.53
2022-12-26T15:47:32.302Z,1.60
2022-12-26T15:48:49.725Z,1.40
2022-12-26T15:50:05.758Z,1.57
2022-12-26T15:51:12.523Z,1.73
2022-12-26T15:52:26.135Z,1.40
2022-12-26T15:53:42.005Z,1.30
2022-12-26T15:55:24.846Z,1.70
2022-12-26T15:56:51.173Z,1.70